METAR Data
IDs: Format: Raw Decoded Include TAF

Data at: 1505 UTC 10 Aug 2022

METAR for:KTEX (Telluride Rgnl, CO, US)
Text:KTEX 101455Z AUTO 00000KT 10SM BKN100 20/07 A3062 RMK AO2
Temperature: 20.0°C ( 68°F)
Dewpoint: 7.0°C ( 45°F) [RH = 43%]
Pressure (altimeter):30.62 inches Hg (1037.0 mb)
Winds:calm
Visibility:10 or more sm (16+ km)
Ceiling:10000 feet AGL
Clouds: broken clouds at 10000 feet AGL
QC Flag:automated observation with no human augmentation